Time,TemperatureF,DewpointF,PressureIn,WindDirection,WindDirectionDegrees,WindSpeedMPH,WindSpeedGustMPH,Humidity,HourlyPrecipIn,Conditions,Clouds,dailyrainin,SoftwareType,DateUTC
2013-01-12 00:00:00,67.5,66.6,29.91,ESE,123,1.0,1.0,97,0.00,,,0.55,Wunderground v.1.15,2013-01-12 06:00:00,
2013-01-12 00:05:00,67.6,66.7,29.91,ESE,121,1.0,3.0,97,0.00,,,0.55,Wunderground v.1.15,2013-01-12 06:05:00,
2013-01-12 00:10:00,67.6,66.7,29.91,SE,140,2.0,2.0,97,0.00,,,0.55,Wunderground v.1.15,2013-01-12 06:10:00,
2013-01-12 00:15:00,67.7,66.8,29.91,ESE,121,2.0,3.0,97,0.00,,,0.55,Wunderground v.1.15,2013-01-12 06:15:00,
2013-01-12 00:25:00,67.6,66.7,29.91,SE,134,1.0,2.0,97,0.00,,,0.00,Wunderground v.1.15,2013-01-12 06:25:00,
2013-01-12 00:30:00,67.6,66.7,29.91,SSW,194,2.0,2.0,97,0.00,,,0.00,Wunderground v.1.15,2013-01-12 06:30:00,
2013-01-12 00:35:00,67.5,66.6,29.91,SSE,153,1.0,3.0,97,0.00,,,0.00,Wunderground v.1.15,2013-01-12 06:35:00,
2013-01-12 00:40:00,67.5,66.6,29.91,SE,140,1.0,1.0,97,0.00,,,0.00,Wunderground v.1.15,2013-01-12 06:40:00,
2013-01-12 00:45:00,67.4,66.5,29.91,SE,125,1.0,5.0,97,0.00,,,0.00,Wunderground v.1.15,2013-01-12 06:45:00,
2013-01-12 00:50:00,67.4,66.5,29.91,SE,138,1.0,7.0,97,0.00,,,0.00,Wunderground v.1.15,2013-01-12 06:50:00,
2013-01-12 00:55:00,67.4,66.5,29.91,SE,135,1.0,7.0,97,0.00,,,0.00,Wunderground v.1.15,2013-01-12 06:55:00,
2013-01-12 01:00:00,67.5,66.6,29.91,SE,131,1.0,1.0,97,0.00,,,0.00,Wunderground v.1.15,2013-01-12 07:00:00,
2013-01-12 01:05:00,67.4,66.5,29.91,SE,132,1.0,7.0,97,0.00,,,0.00,Wunderground v.1.15,2013-01-12 07:05:00,
2013-01-12 01:10:00,67.4,66.5,29.91,ESE,123,1.0,7.0,97,0.00,,,0.01,Wunderground v.1.15,2013-01-12 07:10:00,
2013-01-12 01:15:00,67.4,66.5,29.91,ESE,121,1.0,7.0,97,0.00,,,0.01,Wunderground v.1.15,2013-01-12 07:15:00,
2013-01-12 01:20:00,67.5,66.6,29.91,SE,141,1.0,1.0,97,0.00,,,0.01,Wunderground v.1.15,2013-01-12 07:20:00,
2013-01-12 01:25:00,67.5,66.6,29.91,SE,130,1.0,2.0,97,0.00,,,0.01,Wunderground v.1.15,2013-01-12 07:25:00,
2013-01-12 01:35:00,67.6,66.7,29.92,SE,133,1.0,7.0,97,0.00,,,0.01,Wunderground v.1.15,2013-01-12 07:35:00,
2013-01-12 01:40:00,67.6,66.7,29.92,SE,125,1.0,1.0,97,0.00,,,0.01,Wunderground v.1.15,2013-01-12 07:40:00,
2013-01-12 01:45:00,67.6,66.7,29.92,SSE,148,0.0,7.0,97,0.00,,,0.01,Wunderground v.1.15,2013-01-12 07:45:00,
2013-01-12 01:50:00,67.7,66.8,29.92,SE,129,1.0,1.0,97,0.00,,,0.01,Wunderground v.1.15,2013-01-12 07:50:00,
2013-01-12 01:55:00,67.7,66.8,29.92,SE,130,1.0,3.0,97,0.00,,,0.01,Wunderground v.1.15,2013-01-12 07:55:00,
2013-01-12 02:00:00,67.7,66.8,29.92,SE,130,0.0,7.0,97,0.00,,,0.01,Wunderground v.1.15,2013-01-12 08:00:00,
2013-01-12 02:05:00,67.8,66.9,29.92,SE,132,1.0,7.0,97,0.00,,,0.01,Wunderground v.1.15,2013-01-12 08:05:00,
2013-01-12 02:10:00,68.0,67.1,29.92,ESE,115,1.0,7.0,97,0.00,,,0.01,Wunderground v.1.15,2013-01-12 08:10:00,
2013-01-12 02:15:00,68.2,67.3,29.92,SE,144,1.0,7.0,97,0.00,,,0.01,Wunderground v.1.15,2013-01-12 08:15:00,
2013-01-12 02:20:00,68.3,67.4,29.92,South,185,2.0,7.0,97,0.00,,,0.01,Wunderground v.1.15,2013-01-12 08:20:00,
2013-01-12 02:25:00,68.3,67.4,29.92,SSE,148,2.0,7.0,97,0.00,,,0.01,Wunderground v.1.15,2013-01-12 08:25:00,
2013-01-12 02:30:00,68.3,67.4,29.92,SSE,161,2.0,7.0,97,0.00,,,0.01,Wunderground v.1.15,2013-01-12 08:30:00,
2013-01-12 02:40:00,68.3,67.4,29.92,SE,128,2.0,2.0,97,0.00,,,0.01,Wunderground v.1.15,2013-01-12 08:40:00,
2013-01-12 02:45:00,68.2,67.3,29.92,SE,127,2.0,7.0,97,0.00,,,0.01,Wunderground v.1.15,2013-01-12 08:45:00,
2013-01-12 02:50:00,68.1,67.2,29.92,SE,130,2.0,2.0,97,0.00,,,0.01,Wunderground v.1.15,2013-01-12 08:50:00,
2013-01-12 02:55:00,68.1,67.2,29.92,ESE,119,2.0,7.0,97,0.00,,,0.01,Wunderground v.1.15,2013-01-12 08:55:00,
2013-01-12 03:00:00,68.1,67.2,29.92,SE,124,3.0,7.0,97,0.00,,,0.01,Wunderground v.1.15,2013-01-12 09:00:00,
2013-01-12 03:05:00,68.1,67.2,29.92,SE,125,2.0,7.0,97,0.00,,,0.01,Wunderground v.1.15,2013-01-12 09:05:00,
2013-01-12 03:10:00,68.1,67.2,29.92,ESE,109,2.0,7.0,97,0.00,,,0.01,Wunderground v.1.15,2013-01-12 09:10:00,
2013-01-12 03:15:00,68.1,67.2,29.92,SE,138,2.0,7.0,97,0.00,,,0.01,Wunderground v.1.15,2013-01-12 09:15:00,
2013-01-12 03:20:00,68.1,67.2,29.91,SE,145,1.0,7.0,97,0.00,,,0.01,Wunderground v.1.15,2013-01-12 09:20:00,
2013-01-12 03:25:00,68.0,67.1,29.91,East,100,1.0,7.0,97,0.00,,,0.01,Wunderground v.1.15,2013-01-12 09:25:00,
2013-01-12 03:30:00,67.9,67.0,29.91,ESE,116,1.0,7.0,97,0.00,,,0.01,Wunderground v.1.15,2013-01-12 09:30:00,
2013-01-12 03:35:00,68.0,67.1,29.91,ESE,117,1.0,7.0,97,0.00,,,0.01,Wunderground v.1.15,2013-01-12 09:35:00,
2013-01-12 03:40:00,68.0,67.1,29.91,South,190,1.0,7.0,97,0.00,,,0.01,Wunderground v.1.15,2013-01-12 09:40:00,
2013-01-12 03:45:00,68.0,67.1,29.91,South,171,1.0,7.0,97,0.00,,,0.01,Wunderground v.1.15,2013-01-12 09:45:00,
2013-01-12 03:50:00,68.0,67.1,29.91,SE,144,1.0,7.0,97,0.00,,,0.01,Wunderground v.1.15,2013-01-12 09:50:00,
2013-01-12 03:55:00,67.9,67.0,29.91,SE,144,1.0,7.0,97,0.00,,,0.01,Wunderground v.1.15,2013-01-12 09:55:00,
2013-01-12 04:00:00,68.0,67.1,29.91,SE,128,1.0,1.0,97,0.00,,,0.01,Wunderground v.1.15,2013-01-12 10:00:00,
2013-01-12 04:05:00,68.0,67.1,29.90,SSE,152,1.0,2.0,97,0.00,,,0.01,Wunderground v.1.15,2013-01-12 10:05:00,
2013-01-12 04:10:00,68.0,67.1,29.90,ESE,109,1.0,1.0,97,0.00,,,0.01,Wunderground v.1.15,2013-01-12 10:10:00,
2013-01-12 04:15:00,67.9,67.0,29.90,ESE,111,2.0,2.0,97,0.00,,,0.01,Wunderground v.1.15,2013-01-12 10:15:00,
2013-01-12 04:20:00,67.9,67.0,29.90,SSE,161,3.0,3.0,97,0.00,,,0.01,Wunderground v.1.15,2013-01-12 10:20:00,
2013-01-12 04:30:00,67.9,67.0,29.90,SSE,162,3.0,7.0,97,0.00,,,0.01,Wunderground v.1.15,2013-01-12 10:30:00,
2013-01-12 04:35:00,67.9,67.0,29.90,SSE,149,3.0,7.0,97,0.00,,,0.01,Wunderground v.1.15,2013-01-12 10:35:00,
2013-01-12 04:40:00,67.9,67.0,29.90,SE,140,2.0,7.0,97,0.00,,,0.01,Wunderground v.1.15,2013-01-12 10:40:00,
2013-01-12 04:45:00,67.9,67.0,29.90,SSE,150,2.0,7.0,97,0.00,,,0.01,Wunderground v.1.15,2013-01-12 10:45:00,
2013-01-12 04:50:00,67.8,66.9,29.90,South,180,2.0,2.0,97,0.00,,,0.01,Wunderground v.1.15,2013-01-12 10:50:00,
2013-01-12 04:55:00,67.9,67.0,29.90,South,186,1.0,7.0,97,0.00,,,0.01,Wunderground v.1.15,2013-01-12 10:55:00,
2013-01-12 05:00:00,67.8,66.9,29.90,SSE,159,1.0,1.0,97,0.00,,,0.02,Wunderground v.1.15,2013-01-12 11:00:00,
2013-01-12 05:05:00,67.8,66.9,29.91,SSW,205,0.0,1.0,97,0.00,,,0.02,Wunderground v.1.15,2013-01-12 11:05:00,
2013-01-12 05:15:00,67.7,66.8,29.91,SE,141,1.0,1.0,97,0.00,,,0.02,Wunderground v.1.15,2013-01-12 11:15:00,
2013-01-12 05:20:00,67.7,66.8,29.91,ESE,104,1.0,1.0,97,0.00,,,0.02,Wunderground v.1.15,2013-01-12 11:20:00,
2013-01-12 05:25:00,67.7,66.8,29.91,ESE,121,1.0,3.0,97,0.00,,,0.02,Wunderground v.1.15,2013-01-12 11:25:00,
2013-01-12 05:30:00,67.7,66.8,29.91,ESE,118,1.0,1.0,97,0.00,,,0.02,Wunderground v.1.15,2013-01-12 11:30:00,
2013-01-12 05:35:00,67.6,66.7,29.91,ESE,118,2.0,2.0,97,0.00,,,0.02,Wunderground v.1.15,2013-01-12 11:35:00,
2013-01-12 05:40:00,67.6,66.7,29.91,SE,137,2.0,2.0,97,0.00,,,0.02,Wunderground v.1.15,2013-01-12 11:40:00,
2013-01-12 05:45:00,67.5,66.6,29.91,SE,132,1.0,8.0,97,0.00,,,0.02,Wunderground v.1.15,2013-01-12 11:45:00,
2013-01-12 05:50:00,67.4,66.5,29.91,SE,132,1.0,8.0,97,0.00,,,0.02,Wunderground v.1.15,2013-01-12 11:50:00,
2013-01-12 05:55:00,67.4,66.5,29.91,SE,127,1.0,8.0,97,0.00,,,0.02,Wunderground v.1.15,2013-01-12 11:55:00,
2013-01-12 06:00:00,67.3,66.4,29.91,SE,130,2.0,8.0,97,0.00,,,0.02,Wunderground v.1.15,2013-01-12 12:00:00,
2013-01-12 06:05:00,67.3,66.4,29.91,SE,126,2.0,8.0,97,0.00,,,0.02,Wunderground v.1.15,2013-01-12 12:05:00,
2013-01-12 06:10:00,67.2,66.3,29.91,SSE,156,1.0,1.0,97,0.00,,,0.02,Wunderground v.1.15,2013-01-12 12:10:00,
2013-01-12 06:15:00,67.2,66.3,29.91,East,98,2.0,2.0,97,0.00,,,0.02,Wunderground v.1.15,2013-01-12 12:15:00,
2013-01-12 06:20:00,67.1,66.2,29.91,East,90,2.0,2.0,97,0.00,,,0.02,Wunderground v.1.15,2013-01-12 12:20:00,
2013-01-12 06:25:00,67.0,66.1,29.91,SE,124,2.0,8.0,97,0.00,,,0.02,Wunderground v.1.15,2013-01-12 12:25:00,
2013-01-12 06:30:00,67.0,66.1,29.91,SE,141,2.0,8.0,97,0.00,,,0.02,Wunderground v.1.15,2013-01-12 12:30:00,
2013-01-12 06:35:00,67.0,66.1,29.91,SSE,156,2.0,8.0,97,0.00,,,0.02,Wunderground v.1.15,2013-01-12 12:35:00,
2013-01-12 06:40:00,66.9,66.0,29.91,East,99,2.0,8.0,97,0.00,,,0.02,Wunderground v.1.15,2013-01-12 12:40:00,
2013-01-12 06:45:00,66.9,66.0,29.91,SE,128,2.0,8.0,97,0.00,,,0.02,Wunderground v.1.15,2013-01-12 12:45:00,
2013-01-12 06:50:00,66.9,66.0,29.91,ESE,118,2.0,2.0,97,0.00,,,0.02,Wunderground v.1.15,2013-01-12 12:50:00,
2013-01-12 06:55:00,66.9,66.0,29.91,SE,134,1.0,8.0,97,0.00,,,0.02,Wunderground v.1.15,2013-01-12 12:55:00,
2013-01-12 07:00:00,66.8,65.9,29.91,ESE,103,2.0,2.0,97,0.00,,,0.02,Wunderground v.1.15,2013-01-12 13:00:00,
2013-01-12 07:05:00,66.9,66.0,29.92,SSE,155,2.0,7.0,97,0.00,,,0.02,Wunderground v.1.15,2013-01-12 13:05:00,
2013-01-12 07:10:00,67.0,66.1,29.92,ESE,117,4.0,4.0,97,0.00,,,0.02,Wunderground v.1.15,2013-01-12 13:10:00,
2013-01-12 07:15:00,67.0,66.1,29.92,SSW,205,4.0,8.0,97,0.00,,,0.02,Wunderground v.1.15,2013-01-12 13:15:00,
2013-01-12 07:20:00,67.0,66.1,29.93,South,180,2.0,8.0,97,0.00,,,0.02,Wunderground v.1.15,2013-01-12 13:20:00,
2013-01-12 07:25:00,67.0,66.1,29.93,South,169,2.0,8.0,97,0.00,,,0.02,Wunderground v.1.15,2013-01-12 13:25:00,
2013-01-12 07:30:00,67.0,66.1,29.93,SSE,163,2.0,2.0,97,0.00,,,0.02,Wunderground v.1.15,2013-01-12 13:30:00,
2013-01-12 07:35:00,67.0,66.1,29.93,ESE,107,2.0,8.0,97,0.00,,,0.02,Wunderground v.1.15,2013-01-12 13:35:00,
2013-01-12 07:40:00,67.0,66.1,29.93,SSE,150,2.0,2.0,97,0.00,,,0.02,Wunderground v.1.15,2013-01-12 13:40:00,
2013-01-12 07:45:00,67.0,66.1,29.93,SE,132,2.0,4.0,97,0.00,,,0.02,Wunderground v.1.15,2013-01-12 13:45:00,
2013-01-12 07:50:00,67.0,66.1,29.93,ESE,115,2.0,8.0,97,0.00,,,0.02,Wunderground v.1.15,2013-01-12 13:50:00,
2013-01-12 07:55:00,67.0,66.1,29.93,SE,128,1.0,8.0,97,0.00,,,0.02,Wunderground v.1.15,2013-01-12 13:55:00,
2013-01-12 08:00:00,67.1,66.2,29.93,SE,135,2.0,8.0,97,0.00,,,0.02,Wunderground v.1.15,2013-01-12 14:00:00,
2013-01-12 08:05:00,67.1,66.2,29.94,SE,139,2.0,8.0,97,0.00,,,0.02,Wunderground v.1.15,2013-01-12 14:05:00,
2013-01-12 08:10:00,67.1,66.2,29.94,SE,144,2.0,2.0,97,0.00,,,0.02,Wunderground v.1.15,2013-01-12 14:10:00,
2013-01-12 08:15:00,67.2,66.3,29.94,South,170,2.0,8.0,97,0.00,,,0.02,Wunderground v.1.15,2013-01-12 14:15:00,
2013-01-12 08:20:00,67.2,66.3,29.94,SE,140,2.0,8.0,97,0.00,,,0.02,Wunderground v.1.15,2013-01-12 14:20:00,
2013-01-12 08:25:00,67.2,66.3,29.94,SE,140,2.0,8.0,97,0.00,,,0.02,Wunderground v.1.15,2013-01-12 14:25:00,
2013-01-12 08:30:00,67.4,66.5,29.94,ESE,117,1.0,8.0,97,0.00,,,0.02,Wunderground v.1.15,2013-01-12 14:30:00,
2013-01-12 08:35:00,67.4,66.5,29.94,SE,129,2.0,8.0,97,0.00,,,0.02,Wunderground v.1.15,2013-01-12 14:35:00,
2013-01-12 08:40:00,67.6,66.7,29.94,SSE,161,2.0,2.0,97,0.00,,,0.02,Wunderground v.1.15,2013-01-12 14:40:00,
2013-01-12 08:50:00,67.8,66.9,29.94,SSE,159,3.0,8.0,97,0.00,,,0.02,Wunderground v.1.15,2013-01-12 14:50:00,
2013-01-12 08:55:00,67.9,67.0,29.94,SE,136,3.0,8.0,97,0.00,,,0.02,Wunderground v.1.15,2013-01-12 14:55:00,
2013-01-12 09:00:00,67.9,67.0,29.94,SE,137,3.0,8.0,97,0.00,,,0.02,Wunderground v.1.15,2013-01-12 15:00:00,
2013-01-12 09:05:00,68.0,67.1,29.94,SE,128,3.0,8.0,97,0.00,,,0.02,Wunderground v.1.15,2013-01-12 15:05:00,
2013-01-12 09:10:00,67.9,67.0,29.94,SSW,209,2.0,2.0,97,0.00,,,0.02,Wunderground v.1.15,2013-01-12 15:10:00,
2013-01-12 09:20:00,68.0,67.1,29.94,SE,127,2.0,8.0,97,0.00,,,0.02,Wunderground v.1.15,2013-01-12 15:20:00,
2013-01-12 09:25:00,68.0,67.1,29.94,East,92,3.0,8.0,97,0.00,,,0.02,Wunderground v.1.15,2013-01-12 15:25:00,
2013-01-12 09:30:00,68.1,67.2,29.94,South,173,3.0,8.0,97,0.00,,,0.02,Wunderground v.1.15,2013-01-12 15:30:00,
2013-01-12 09:35:00,68.2,67.3,29.94,SE,125,3.0,8.0,97,0.00,,,0.02,Wunderground v.1.15,2013-01-12 15:35:00,
2013-01-12 09:40:00,68.3,67.4,29.94,SE,137,2.0,8.0,97,0.00,,,0.02,Wunderground v.1.15,2013-01-12 15:40:00,
2013-01-12 09:45:00,68.4,67.5,29.94,SE,132,2.0,8.0,97,0.00,,,0.02,Wunderground v.1.15,2013-01-12 15:45:00,
2013-01-12 09:50:00,68.5,67.6,29.94,SE,131,2.0,2.0,97,0.00,,,0.02,Wunderground v.1.15,2013-01-12 15:50:00,
2013-01-12 09:55:00,68.5,67.6,29.94,SE,128,3.0,3.0,97,0.00,,,0.02,Wunderground v.1.15,2013-01-12 15:55:00,
2013-01-12 10:00:00,68.5,67.3,29.94,SSE,152,3.0,3.0,96,0.00,,,0.02,Wunderground v.1.15,2013-01-12 16:00:00,
2013-01-12 10:05:00,68.6,67.4,29.94,SSW,213,3.0,8.0,96,0.00,,,0.02,Wunderground v.1.15,2013-01-12 16:05:00,
2013-01-12 10:10:00,68.6,67.4,29.94,SE,128,2.0,8.0,96,0.00,,,0.02,Wunderground v.1.15,2013-01-12 16:10:00,
2013-01-12 10:15:00,68.7,67.5,29.94,ESE,106,2.0,8.0,96,0.00,,,0.02,Wunderground v.1.15,2013-01-12 16:15:00,
2013-01-12 10:20:00,68.8,67.6,29.93,SSE,160,3.0,3.0,96,0.00,,,0.02,Wunderground v.1.15,2013-01-12 16:20:00,
2013-01-12 10:25:00,68.9,67.7,29.93,South,169,3.0,8.0,96,0.00,,,0.02,Wunderground v.1.15,2013-01-12 16:25:00,
2013-01-12 10:30:00,69.0,67.8,29.93,SE,134,3.0,3.0,96,0.00,,,0.02,Wunderground v.1.15,2013-01-12 16:30:00,
2013-01-12 10:35:00,69.2,68.0,29.93,ESE,116,3.0,8.0,96,0.00,,,0.02,Wunderground v.1.15,2013-01-12 16:35:00,
2013-01-12 10:45:00,69.2,68.0,29.93,South,188,3.0,8.0,96,0.00,,,0.02,Wunderground v.1.15,2013-01-12 16:45:00,
2013-01-12 10:50:00,69.3,68.1,29.93,East,93,3.0,8.0,96,0.00,,,0.02,Wunderground v.1.15,2013-01-12 16:50:00,
2013-01-12 10:55:00,69.4,67.9,29.93,East,84,3.0,8.0,95,0.00,,,0.02,Wunderground v.1.15,2013-01-12 16:55:00,
2013-01-12 11:05:00,69.6,68.1,29.92,SSE,153,2.0,8.0,95,0.00,,,0.02,Wunderground v.1.15,2013-01-12 17:05:00,
2013-01-12 11:10:00,69.7,67.9,29.92,South,180,2.0,2.0,94,0.00,,,0.02,Wunderground v.1.15,2013-01-12 17:10:00,
2013-01-12 11:15:00,69.7,67.9,29.92,ESE,123,2.0,5.0,94,0.00,,,0.02,Wunderground v.1.15,2013-01-12 17:15:00,
2013-01-12 11:20:00,69.8,68.0,29.92,SSE,156,2.0,2.0,94,0.00,,,0.02,Wunderground v.1.15,2013-01-12 17:20:00,
2013-01-12 11:25:00,70.0,68.2,29.92,SSE,153,1.0,8.0,94,0.00,,,0.02,Wunderground v.1.15,2013-01-12 17:25:00,
2013-01-12 11:30:00,70.2,68.4,29.92,South,180,2.0,2.0,94,0.00,,,0.02,Wunderground v.1.15,2013-01-12 17:30:00,
2013-01-12 11:40:00,70.5,68.4,29.90,SSE,161,2.0,2.0,93,0.00,,,0.02,Wunderground v.1.15,2013-01-12 17:40:00,
2013-01-12 11:45:00,70.6,68.5,29.90,SE,136,2.0,3.0,93,0.00,,,0.02,Wunderground v.1.15,2013-01-12 17:45:00,
2013-01-12 11:50:00,70.7,68.6,29.90,ESE,110,2.0,8.0,93,0.00,,,0.02,Wunderground v.1.15,2013-01-12 17:50:00,
2013-01-12 11:55:00,71.1,69.0,29.90,SW,226,3.0,8.0,93,0.00,,,0.02,Wunderground v.1.15,2013-01-12 17:55:00,
2013-01-12 12:00:00,71.5,69.4,29.90,SE,144,2.0,2.0,93,0.00,,,0.02,Wunderground v.1.15,2013-01-12 18:00:00,
2013-01-12 12:10:00,71.7,68.6,29.89,WSW,239,3.0,3.0,90,0.00,,,0.02,Wunderground v.1.15,2013-01-12 18:10:00,
2013-01-12 12:15:00,71.9,68.5,29.89,SSE,159,5.0,11.0,89,0.00,,,0.02,Wunderground v.1.15,2013-01-12 18:15:00,
2013-01-12 12:20:00,71.9,68.2,29.89,SSE,163,6.0,9.0,88,0.00,,,0.02,Wunderground v.1.15,2013-01-12 18:20:00,
2013-01-12 12:25:00,72.0,68.2,29.89,South,190,4.0,9.0,88,0.00,,,0.02,Wunderground v.1.15,2013-01-12 18:25:00,
2013-01-12 12:30:00,72.3,68.2,29.89,SSW,199,3.0,8.0,87,0.00,,,0.02,Wunderground v.1.15,2013-01-12 18:30:00,
2013-01-12 12:35:00,72.4,68.3,29.88,West,273,4.0,8.0,87,0.00,,,0.02,Wunderground v.1.15,2013-01-12 18:35:00,
2013-01-12 12:40:00,72.3,68.2,29.88,SSE,163,4.0,8.0,87,0.00,,,0.02,Wunderground v.1.15,2013-01-12 18:40:00,
2013-01-12 12:45:00,72.3,68.2,29.88,ESE,111,4.0,8.0,87,0.00,,,0.02,Wunderground v.1.15,2013-01-12 18:45:00,
2013-01-12 12:50:00,72.6,68.5,29.86,SSE,152,4.0,8.0,87,0.00,,,0.02,Wunderground v.1.15,2013-01-12 18:50:00,
2013-01-12 12:55:00,73.1,68.3,29.86,SE,134,4.0,10.0,85,0.00,,,0.02,Wunderground v.1.15,2013-01-12 18:55:00,
2013-01-12 13:00:00,73.5,68.4,29.86,SE,125,4.0,4.0,84,0.00,,,0.02,Wunderground v.1.15,2013-01-12 19:00:00,
2013-01-12 13:05:00,74.0,69.2,29.85,SE,125,3.0,8.0,85,0.00,,,0.02,Wunderground v.1.15,2013-01-12 19:05:00,
2013-01-12 13:10:00,74.6,69.4,29.85,SSE,154,2.0,8.0,84,0.00,,,0.02,Wunderground v.1.15,2013-01-12 19:10:00,
2013-01-12 13:15:00,74.9,69.0,29.85,SE,134,3.0,8.0,82,0.00,,,0.02,Wunderground v.1.15,2013-01-12 19:15:00,
2013-01-12 13:20:00,74.6,68.4,29.84,SW,225,5.0,8.0,81,0.00,,,0.02,Wunderground v.1.15,2013-01-12 19:20:00,
2013-01-12 13:25:00,74.3,68.1,29.84,East,90,5.0,8.0,81,0.00,,,0.02,Wunderground v.1.15,2013-01-12 19:25:00,
2013-01-12 13:30:00,74.3,68.4,29.84,SE,137,5.0,10.0,82,0.00,,,0.02,Wunderground v.1.15,2013-01-12 19:30:00,
2013-01-12 13:35:00,74.3,68.1,29.84,SE,128,5.0,10.0,81,0.00,,,0.02,Wunderground v.1.15,2013-01-12 19:35:00,
2013-01-12 13:45:00,74.0,68.2,29.84,SSE,155,4.0,8.0,82,0.00,,,0.02,Wunderground v.1.15,2013-01-12 19:45:00,
2013-01-12 13:50:00,73.9,68.1,29.84,South,170,3.0,8.0,82,0.00,,,0.02,Wunderground v.1.15,2013-01-12 19:50:00,
2013-01-12 13:55:00,73.9,68.1,29.84,South,180,3.0,8.0,82,0.00,,,0.02,Wunderground v.1.15,2013-01-12 19:55:00,
2013-01-12 14:00:00,73.9,68.1,29.84,ESE,119,3.0,8.0,82,0.00,,,0.02,Wunderground v.1.15,2013-01-12 20:00:00,
2013-01-12 14:05:00,73.9,67.7,29.84,SSE,148,4.0,8.0,81,0.00,,,0.02,Wunderground v.1.15,2013-01-12 20:05:00,
2013-01-12 14:10:00,74.0,67.8,29.84,SSE,163,5.0,8.0,81,0.00,,,0.02,Wunderground v.1.15,2013-01-12 20:10:00,
2013-01-12 14:15:00,74.5,67.9,29.84,South,175,4.0,8.0,80,0.00,,,0.02,Wunderground v.1.15,2013-01-12 20:15:00,
2013-01-12 14:25:00,74.6,67.7,29.84,SSW,209,4.0,8.0,79,0.00,,,0.02,Wunderground v.1.15,2013-01-12 20:25:00,
2013-01-12 14:30:00,74.4,67.5,29.84,West,273,4.0,4.0,79,0.00,,,0.02,Wunderground v.1.15,2013-01-12 20:30:00,
2013-01-12 14:35:00,74.4,67.8,29.83,SSE,150,4.0,5.0,80,0.00,,,0.02,Wunderground v.1.15,2013-01-12 20:35:00,
2013-01-12 14:40:00,74.3,67.4,29.83,SSE,161,4.0,4.0,79,0.00,,,0.02,Wunderground v.1.15,2013-01-12 20:40:00,
2013-01-12 14:45:00,74.5,67.9,29.83,ESE,123,4.0,5.0,80,0.00,,,0.02,Wunderground v.1.15,2013-01-12 20:45:00,
2013-01-12 14:55:00,74.9,67.6,29.83,ESE,109,4.0,8.0,78,0.00,,,0.02,Wunderground v.1.15,2013-01-12 20:55:00,
2013-01-12 15:00:00,74.8,67.8,29.83,South,172,4.0,4.0,79,0.00,,,0.02,Wunderground v.1.15,2013-01-12 21:00:00,
2013-01-12 15:05:00,74.9,67.6,29.83,South,175,4.0,4.0,78,0.00,,,0.02,Wunderground v.1.15,2013-01-12 21:05:00,
2013-01-12 15:10:00,75.1,68.1,29.83,SE,136,4.0,4.0,79,0.00,,,0.02,Wunderground v.1.15,2013-01-12 21:10:00,
2013-01-12 15:15:00,75.5,67.8,29.83,SSW,203,4.0,4.0,77,0.00,,,0.02,Wunderground v.1.15,2013-01-12 21:15:00,
2013-01-12 15:20:00,75.6,67.5,29.83,ESE,123,6.0,6.0,76,0.00,,,0.02,Wunderground v.1.15,2013-01-12 21:20:00,
2013-01-12 15:25:00,75.3,67.2,29.83,SSE,148,5.0,12.0,76,0.00,,,0.02,Wunderground v.1.15,2013-01-12 21:25:00,
2013-01-12 15:30:00,74.7,66.6,29.83,SSE,157,5.0,5.0,76,0.00,,,0.02,Wunderground v.1.15,2013-01-12 21:30:00,
2013-01-12 15:35:00,74.4,66.7,29.82,South,172,5.0,13.0,77,0.00,,,0.02,Wunderground v.1.15,2013-01-12 21:35:00,
2013-01-12 15:40:00,74.3,67.0,29.82,South,186,4.0,13.0,78,0.00,,,0.02,Wunderground v.1.15,2013-01-12 21:40:00,
2013-01-12 15:45:00,74.2,66.9,29.82,SSE,153,4.0,13.0,78,0.00,,,0.02,Wunderground v.1.15,2013-01-12 21:45:00,
2013-01-12 15:50:00,74.1,66.8,29.83,SSW,196,4.0,4.0,78,0.00,,,0.02,Wunderground v.1.15,2013-01-12 21:50:00,
2013-01-12 15:55:00,74.0,67.1,29.83,South,169,4.0,13.0,79,0.00,,,0.02,Wunderground v.1.15,2013-01-12 21:55:00,
2013-01-12 16:00:00,73.9,67.3,29.83,SSE,165,4.0,4.0,80,0.00,,,0.02,Wunderground v.1.15,2013-01-12 22:00:00,
2013-01-12 16:05:00,73.7,67.1,29.83,SSE,155,3.0,13.0,80,0.00,,,0.02,Wunderground v.1.15,2013-01-12 22:05:00,
2013-01-12 16:10:00,73.5,66.9,29.83,SSW,192,3.0,3.0,80,0.00,,,0.02,Wunderground v.1.15,2013-01-12 22:10:00,
2013-01-12 16:15:00,73.3,66.8,29.83,South,186,2.0,13.0,80,0.00,,,0.02,Wunderground v.1.15,2013-01-12 22:15:00,
2013-01-12 16:20:00,73.2,67.0,29.83,SE,146,2.0,2.0,81,0.00,,,0.02,Wunderground v.1.15,2013-01-12 22:20:00,
2013-01-12 16:25:00,73.1,66.9,29.83,ESE,122,2.0,13.0,81,0.00,,,0.02,Wunderground v.1.15,2013-01-12 22:25:00,
2013-01-12 16:30:00,72.9,66.7,29.83,SSW,192,3.0,3.0,81,0.00,,,0.02,Wunderground v.1.15,2013-01-12 22:30:00,
2013-01-12 16:35:00,72.8,66.6,29.83,ESE,106,3.0,13.0,81,0.00,,,0.02,Wunderground v.1.15,2013-01-12 22:35:00,
2013-01-12 16:45:00,72.7,66.5,29.83,SSE,161,2.0,13.0,81,0.00,,,0.02,Wunderground v.1.15,2013-01-12 22:45:00,
2013-01-12 16:50:00,72.5,66.3,29.83,SW,214,3.0,13.0,81,0.00,,,0.02,Wunderground v.1.15,2013-01-12 22:50:00,
2013-01-12 16:55:00,72.4,66.6,29.83,SSE,150,2.0,13.0,82,0.00,,,0.02,Wunderground v.1.15,2013-01-12 22:55:00,
2013-01-12 17:00:00,72.2,66.4,29.83,ESE,109,2.0,13.0,82,0.00,,,0.02,Wunderground v.1.15,2013-01-12 23:00:00,
2013-01-12 17:05:00,72.0,66.6,29.83,South,180,2.0,13.0,83,0.00,,,0.02,Wunderground v.1.15,2013-01-12 23:05:00,
2013-01-12 17:10:00,71.7,66.3,29.83,SSE,161,2.0,13.0,83,0.00,,,0.02,Wunderground v.1.15,2013-01-12 23:10:00,
2013-01-12 17:15:00,71.5,66.4,29.83,SE,145,2.0,13.0,84,0.00,,,0.02,Wunderground v.1.15,2013-01-12 23:15:00,
2013-01-12 17:20:00,71.2,66.1,29.82,SSE,149,2.0,2.0,84,0.00,,,0.02,Wunderground v.1.15,2013-01-12 23:20:00,
2013-01-12 17:25:00,71.0,66.3,29.82,SE,141,1.0,13.0,85,0.00,,,0.02,Wunderground v.1.15,2013-01-12 23:25:00,
2013-01-12 17:30:00,70.7,66.0,29.82,SE,127,2.0,13.0,85,0.00,,,0.02,Wunderground v.1.15,2013-01-12 23:30:00,
2013-01-12 17:35:00,70.5,66.1,29.82,SSE,149,2.0,13.0,86,0.00,,,0.02,Wunderground v.1.15,2013-01-12 23:35:00,
2013-01-12 17:40:00,70.2,66.1,29.82,SSE,153,1.0,13.0,87,0.00,,,0.02,Wunderground v.1.15,2013-01-12 23:40:00,
2013-01-12 17:45:00,70.0,66.0,29.82,SSE,161,1.0,13.0,87,0.00,,,0.02,Wunderground v.1.15,2013-01-12 23:45:00,
2013-01-12 17:50:00,70.0,66.3,29.81,SSE,153,2.0,13.0,88,0.00,,,0.02,Wunderground v.1.15,2013-01-12 23:50:00,
2013-01-12 17:55:00,70.0,66.3,29.81,SE,136,3.0,13.0,88,0.00,,,0.02,Wunderground v.1.15,2013-01-12 23:55:00,
2013-01-12 18:00:00,69.9,66.2,29.81,SE,145,2.0,2.0,88,0.00,,,0.02,Wunderground v.1.15,2013-01-13 00:00:00,
2013-01-12 18:05:00,69.8,66.4,29.82,ESE,102,2.0,3.0,89,0.00,,,0.02,Wunderground v.1.15,2013-01-13 00:05:00,
2013-01-12 18:10:00,69.7,66.3,29.82,SE,130,2.0,13.0,89,0.00,,,0.02,Wunderground v.1.15,2013-01-13 00:10:00,
2013-01-12 18:15:00,69.6,66.2,29.82,SSE,148,2.0,13.0,89,0.00,,,0.02,Wunderground v.1.15,2013-01-13 00:15:00,
2013-01-12 18:20:00,69.5,66.4,29.82,SE,144,1.0,13.0,90,0.00,,,0.02,Wunderground v.1.15,2013-01-13 00:20:00,
2013-01-12 18:25:00,69.3,66.2,29.82,SSE,162,1.0,13.0,90,0.00,,,0.02,Wunderground v.1.15,2013-01-13 00:25:00,
2013-01-12 18:30:00,69.2,66.1,29.82,SE,136,2.0,2.0,90,0.00,,,0.02,Wunderground v.1.15,2013-01-13 00:30:00,
2013-01-12 18:35:00,69.1,66.4,29.81,SE,129,3.0,5.0,91,0.00,,,0.02,Wunderground v.1.15,2013-01-13 00:35:00,
2013-01-12 18:40:00,69.0,66.3,29.81,SE,128,3.0,3.0,91,0.00,,,0.02,Wunderground v.1.15,2013-01-13 00:40:00,
2013-01-12 18:50:00,68.9,66.2,29.81,South,181,3.0,3.0,91,0.00,,,0.02,Wunderground v.1.15,2013-01-13 00:50:00,
2013-01-12 18:55:00,68.8,66.4,29.81,SSW,194,2.0,5.0,92,0.00,,,0.02,Wunderground v.1.15,2013-01-13 00:55:00,
2013-01-12 19:00:00,68.7,66.3,29.81,SW,215,2.0,13.0,92,0.00,,,0.02,Wunderground v.1.15,2013-01-13 01:00:00,
2013-01-12 19:05:00,68.6,66.2,29.82,SE,138,2.0,13.0,92,0.00,,,0.02,Wunderground v.1.15,2013-01-13 01:05:00,
2013-01-12 19:10:00,68.6,66.5,29.82,SE,145,2.0,13.0,93,0.00,,,0.02,Wunderground v.1.15,2013-01-13 01:10:00,
2013-01-12 19:15:00,68.4,66.0,29.82,SSE,153,2.0,13.0,92,0.00,,,0.02,Wunderground v.1.15,2013-01-13 01:15:00,
2013-01-12 19:20:00,68.4,66.3,29.82,ESE,122,2.0,13.0,93,0.00,,,0.02,Wunderground v.1.15,2013-01-13 01:20:00,
2013-01-12 19:25:00,68.5,66.4,29.82,SE,126,3.0,13.0,93,0.00,,,0.02,Wunderground v.1.15,2013-01-13 01:25:00,
2013-01-12 19:30:00,68.5,66.4,29.82,SSE,154,3.0,3.0,93,0.00,,,0.02,Wunderground v.1.15,2013-01-13 01:30:00,
2013-01-12 19:35:00,68.6,66.5,29.82,ESE,116,2.0,5.0,93,0.00,,,0.02,Wunderground v.1.15,2013-01-13 01:35:00,
2013-01-12 19:40:00,68.6,66.5,29.82,ESE,115,2.0,13.0,93,0.00,,,0.02,Wunderground v.1.15,2013-01-13 01:40:00,
2013-01-12 19:45:00,68.6,66.5,29.82,ESE,123,2.0,13.0,93,0.00,,,0.02,Wunderground v.1.15,2013-01-13 01:45:00,
2013-01-12 19:50:00,68.6,66.5,29.82,SE,126,2.0,2.0,93,0.00,,,0.02,Wunderground v.1.15,2013-01-13 01:50:00,
2013-01-12 19:55:00,68.6,66.5,29.82,South,188,3.0,3.0,93,0.00,,,0.02,Wunderground v.1.15,2013-01-13 01:55:00,
2013-01-12 20:00:00,68.7,66.6,29.82,ESE,122,3.0,13.0,93,0.00,,,0.02,Wunderground v.1.15,2013-01-13 02:00:00,
2013-01-12 20:10:00,68.7,66.6,29.82,SE,130,3.0,3.0,93,0.00,,,0.02,Wunderground v.1.15,2013-01-13 02:10:00,
2013-01-12 20:15:00,68.7,66.6,29.82,SE,130,3.0,13.0,93,0.00,,,0.02,Wunderground v.1.15,2013-01-13 02:15:00,
2013-01-12 20:20:00,68.7,66.6,29.82,ESE,109,2.0,13.0,93,0.00,,,0.02,Wunderground v.1.15,2013-01-13 02:20:00,
2013-01-12 20:25:00,68.6,66.5,29.82,SE,126,2.0,13.0,93,0.00,,,0.02,Wunderground v.1.15,2013-01-13 02:25:00,
2013-01-12 20:30:00,68.5,66.4,29.82,SE,138,2.0,13.0,93,0.00,,,0.02,Wunderground v.1.15,2013-01-13 02:30:00,
2013-01-12 20:35:00,68.4,66.3,29.82,SE,138,2.0,13.0,93,0.00,,,0.02,Wunderground v.1.15,2013-01-13 02:35:00,
2013-01-12 20:40:00,68.4,66.3,29.82,South,171,3.0,3.0,93,0.00,,,0.02,Wunderground v.1.15,2013-01-13 02:40:00,
2013-01-12 20:45:00,68.3,66.5,29.82,SE,133,3.0,4.0,94,0.00,,,0.02,Wunderground v.1.15,2013-01-13 02:45:00,
2013-01-12 20:50:00,68.3,66.5,29.81,SE,137,3.0,3.0,94,0.00,,,0.02,Wunderground v.1.15,2013-01-13 02:50:00,
2013-01-12 20:55:00,68.3,66.5,29.81,SSE,165,3.0,13.0,94,0.00,,,0.02,Wunderground v.1.15,2013-01-13 02:55:00,
2013-01-12 21:00:00,68.2,66.4,29.81,SE,128,3.0,3.0,94,0.00,,,0.02,Wunderground v.1.15,2013-01-13 03:00:00,
2013-01-12 21:05:00,68.1,66.3,29.80,ESE,118,2.0,6.0,94,0.00,,,0.02,Wunderground v.1.15,2013-01-13 03:05:00,
2013-01-12 21:10:00,68.1,66.3,29.80,SSE,168,2.0,13.0,94,0.00,,,0.02,Wunderground v.1.15,2013-01-13 03:10:00,
2013-01-12 21:20:00,68.0,66.2,29.80,SSW,192,3.0,13.0,94,0.00,,,0.02,Wunderground v.1.15,2013-01-13 03:20:00,
2013-01-12 21:25:00,67.9,66.1,29.80,ESE,117,3.0,13.0,94,0.00,,,0.02,Wunderground v.1.15,2013-01-13 03:25:00,
2013-01-12 21:30:00,67.9,66.1,29.80,East,98,3.0,3.0,94,0.00,,,0.02,Wunderground v.1.15,2013-01-13 03:30:00,
2013-01-12 21:35:00,67.8,66.0,29.80,SSE,161,2.0,13.0,94,0.00,,,0.02,Wunderground v.1.15,2013-01-13 03:35:00,
2013-01-12 21:40:00,67.8,66.0,29.80,East,87,2.0,2.0,94,0.00,,,0.02,Wunderground v.1.15,2013-01-13 03:40:00,
2013-01-12 21:45:00,67.8,66.0,29.80,ESE,120,2.0,13.0,94,0.00,,,0.02,Wunderground v.1.15,2013-01-13 03:45:00,
2013-01-12 21:50:00,67.8,66.0,29.80,SSE,161,2.0,13.0,94,0.00,,,0.02,Wunderground v.1.15,2013-01-13 03:50:00,
2013-01-12 21:55:00,67.8,66.0,29.80,SSE,159,3.0,13.0,94,0.00,,,0.02,Wunderground v.1.15,2013-01-13 03:55:00,
2013-01-12 22:00:00,67.8,66.0,29.80,South,188,2.0,13.0,94,0.00,,,0.02,Wunderground v.1.15,2013-01-13 04:00:00,
2013-01-12 22:05:00,67.9,66.1,29.80,SE,125,3.0,13.0,94,0.00,,,0.02,Wunderground v.1.15,2013-01-13 04:05:00,
2013-01-12 22:10:00,67.9,66.1,29.80,SSW,212,4.0,13.0,94,0.00,,,0.02,Wunderground v.1.15,2013-01-13 04:10:00,
2013-01-12 22:15:00,67.9,66.1,29.80,SSE,165,3.0,13.0,94,0.00,,,0.02,Wunderground v.1.15,2013-01-13 04:15:00,
2013-01-12 22:25:00,67.9,66.1,29.80,South,172,4.0,4.0,94,0.00,,,0.02,Wunderground v.1.15,2013-01-13 04:25:00,
2013-01-12 22:30:00,67.9,66.1,29.80,SSW,198,4.0,13.0,94,0.00,,,0.02,Wunderground v.1.15,2013-01-13 04:30:00,
2013-01-12 22:35:00,67.9,66.1,29.80,SE,145,3.0,13.0,94,0.00,,,0.02,Wunderground v.1.15,2013-01-13 04:35:00,
2013-01-12 22:40:00,67.9,66.1,29.80,SSW,211,3.0,13.0,94,0.00,,,0.02,Wunderground v.1.15,2013-01-13 04:40:00,
2013-01-12 22:45:00,67.9,66.1,29.80,SSE,161,2.0,13.0,94,0.00,,,0.02,Wunderground v.1.15,2013-01-13 04:45:00,
2013-01-12 22:50:00,67.9,66.1,29.81,South,191,3.0,13.0,94,0.00,,,0.02,Wunderground v.1.15,2013-01-13 04:50:00,
2013-01-12 22:55:00,67.9,66.1,29.81,SE,137,3.0,13.0,94,0.00,,,0.02,Wunderground v.1.15,2013-01-13 04:55:00,
2013-01-12 23:05:00,67.9,66.1,29.80,ESE,113,4.0,13.0,94,0.00,,,0.02,Wunderground v.1.15,2013-01-13 05:05:00,
2013-01-12 23:10:00,68.0,66.2,29.80,SE,139,4.0,4.0,94,0.00,,,0.02,Wunderground v.1.15,2013-01-13 05:10:00,
2013-01-12 23:15:00,68.0,66.2,29.80,SE,130,4.0,13.0,94,0.00,,,0.02,Wunderground v.1.15,2013-01-13 05:15:00,
2013-01-12 23:25:00,68.1,66.6,29.80,SE,132,5.0,13.0,95,0.00,,,0.02,Wunderground v.1.15,2013-01-13 05:25:00,
2013-01-12 23:30:00,68.2,66.7,29.80,SE,143,5.0,5.0,95,0.00,,,0.02,Wunderground v.1.15,2013-01-13 05:30:00,
2013-01-12 23:35:00,68.4,66.9,29.81,SE,136,5.0,13.0,95,0.00,,,0.02,Wunderground v.1.15,2013-01-13 05:35:00,
2013-01-12 23:40:00,68.4,66.6,29.81,SE,136,4.0,13.0,94,0.00,,,0.02,Wunderground v.1.15,2013-01-13 05:40:00,
2013-01-12 23:45:00,68.5,66.7,29.81,SE,146,3.0,13.0,94,0.00,,,0.02,Wunderground v.1.15,2013-01-13 05:45:00,
2013-01-12 23:50:00,68.6,66.8,29.81,SSE,153,4.0,13.0,94,0.00,,,0.02,Wunderground v.1.15,2013-01-13 05:50:00,
2013-01-12 23:55:00,68.7,66.9,29.81,SW,230,4.0,13.0,94,0.00,,,0.02,Wunderground v.1.15,2013-01-13 05:55:00,